createdAt,value
2023-04-15T00:01:49.202Z,5.20
2023-04-15T00:04:16.226Z,5.20
2023-04-15T00:06:43.169Z,5.30
2023-04-15T00:09:10.077Z,5.20
2023-04-15T00:11:36.911Z,5.20
2023-04-15T00:14:04.541Z,5.20
2023-04-15T00:16:31.525Z,5.20
2023-04-15T00:18:59.232Z,5.20
2023-04-15T00:21:27.610Z,5.10
2023-04-15T00:23:54.796Z,5.30
2023-04-15T00:26:22.251Z,5.20
2023-04-15T00:28:50.133Z,5.20
2023-04-15T00:31:17.188Z,5.20
2023-04-15T00:33:44.726Z,5.10
2023-04-15T00:36:11.551Z,5.30
2023-04-15T00:38:39.247Z,5.10
2023-04-15T00:41:06.251Z,5.10
2023-04-15T00:43:33.165Z,5.20
2023-04-15T00:46:02.497Z,5.10
2023-04-15T00:48:30.052Z,5.10
2023-04-15T00:50:57.189Z,5.00
2023-04-15T00:53:24.425Z,5.10
2023-04-15T00:55:51.533Z,5.10
2023-04-15T00:58:19.127Z,5.00
2023-04-15T01:00:46.790Z,5.00
2023-04-15T01:03:14.449Z,5.00
2023-04-15T01:05:41.716Z,5.00
2023-04-15T01:08:08.614Z,5.00
2023-04-15T01:10:36.039Z,5.00
2023-04-15T01:13:03.696Z,5.00
2023-04-15T01:15:31.396Z,4.90
2023-04-15T01:17:59.440Z,4.90
2023-04-15T01:20:27.580Z,4.90
2023-04-15T01:22:55.747Z,4.90
2023-04-15T01:25:33.667Z,4.90
2023-04-15T01:28:00.929Z,4.80
2023-04-15T01:30:28.044Z,4.80
2023-04-15T01:32:54.998Z,4.80
2023-04-15T01:35:22.661Z,4.80
2023-04-15T01:37:52.598Z,4.80
2023-04-15T01:40:19.539Z,4.80
2023-04-15T01:42:46.743Z,4.70
2023-04-15T01:45:15.598Z,4.70
2023-04-15T01:47:42.524Z,4.70
2023-04-15T01:50:10.699Z,4.60
2023-04-15T01:52:37.548Z,4.60
2023-04-15T01:55:04.822Z,4.60
2023-04-15T01:57:32.184Z,4.60
2023-04-15T01:59:59.292Z,4.50
2023-04-15T02:02:26.516Z,4.60
2023-04-15T02:04:56.719Z,4.70
2023-04-15T02:07:24.296Z,4.80
2023-04-15T02:09:51.193Z,4.60
2023-04-15T02:12:18.031Z,4.60
2023-04-15T02:14:45.113Z,4.60
2023-04-15T02:17:11.966Z,4.60
2023-04-15T02:19:40.491Z,4.70
2023-04-15T02:22:09.002Z,4.60
2023-04-15T02:24:36.007Z,4.60
2023-04-15T02:27:03.656Z,4.60
2023-04-15T02:29:32.829Z,4.60
2023-04-15T02:32:01.254Z,4.60
2023-04-15T02:34:28.293Z,4.70
2023-04-15T02:36:57.867Z,4.70
2023-04-15T02:39:25.171Z,4.70
2023-04-15T02:41:52.527Z,4.80
2023-04-15T02:44:23.622Z,4.70
2023-04-15T02:46:54.741Z,4.70
2023-04-15T02:49:21.999Z,4.60
2023-04-15T02:51:49.892Z,4.80
2023-04-15T02:54:20.893Z,4.60
2023-04-15T02:56:47.829Z,4.70
2023-04-15T02:59:14.697Z,4.60
2023-04-15T03:01:41.860Z,4.60
2023-04-15T03:04:09.171Z,4.60
2023-04-15T03:06:36.737Z,4.60
2023-04-15T03:09:03.804Z,4.70
2023-04-15T03:11:36.884Z,4.60
2023-04-15T03:14:05.841Z,4.50
2023-04-15T03:16:35.565Z,4.60
2023-04-15T03:19:02.657Z,4.60
2023-04-15T03:21:29.584Z,4.60
2023-04-15T03:23:57.411Z,4.60
2023-04-15T03:26:33.768Z,4.60
2023-04-15T03:29:10.772Z,4.60
2023-04-15T03:31:37.763Z,4.70
2023-04-15T03:34:05.168Z,4.60
2023-04-15T03:36:34.920Z,4.60
2023-04-15T03:39:04.802Z,4.60
2023-04-15T03:41:33.010Z,4.60
2023-04-15T03:43:59.863Z,4.60
2023-04-15T03:46:26.858Z,4.60
2023-04-15T03:48:53.735Z,4.60
2023-04-15T03:51:20.729Z,4.60
2023-04-15T03:53:47.571Z,4.50
2023-04-15T03:56:14.432Z,4.60
2023-04-15T03:58:41.466Z,4.50
2023-04-15T04:01:08.491Z,4.60
2023-04-15T04:03:35.597Z,4.60
2023-04-15T04:06:02.589Z,4.50
2023-04-15T04:08:29.429Z,4.60
2023-04-15T04:10:56.310Z,4.50
2023-04-15T04:13:23.176Z,4.50
2023-04-15T04:15:50.089Z,4.60
2023-04-15T04:18:16.985Z,4.50
2023-04-15T04:20:43.949Z,4.50
2023-04-15T04:23:11.628Z,4.60
2023-04-15T04:25:39.112Z,4.50
2023-04-15T04:28:05.951Z,4.50
2023-04-15T04:30:32.894Z,4.50
2023-04-15T04:33:00.049Z,4.50
2023-04-15T04:35:27.439Z,4.50
2023-04-15T04:37:54.313Z,4.50
2023-04-15T04:40:21.296Z,4.50
2023-04-15T04:42:48.212Z,4.40
2023-04-15T04:45:15.241Z,4.40
2023-04-15T04:47:42.099Z,4.40
2023-04-15T04:50:09.330Z,4.60
2023-04-15T04:52:36.431Z,4.50
2023-04-15T04:55:03.639Z,4.60
2023-04-15T04:57:30.447Z,4.50
2023-04-15T04:59:57.618Z,4.40
2023-04-15T05:02:27.240Z,4.50
2023-04-15T05:04:57.102Z,4.50
2023-04-15T05:07:24.033Z,4.60
2023-04-15T05:09:51.075Z,4.50
2023-04-15T05:12:18.362Z,4.50
2023-04-15T05:14:46.785Z,4.60
2023-04-15T05:17:14.121Z,4.60
2023-04-15T05:19:41.195Z,4.60
2023-04-15T05:22:08.382Z,4.60
2023-04-15T05:24:35.985Z,4.60
2023-04-15T05:27:02.868Z,4.60
2023-04-15T05:29:29.793Z,4.70
2023-04-15T05:31:56.777Z,4.60
2023-04-15T05:34:23.753Z,4.60
2023-04-15T05:36:50.688Z,4.70
2023-04-15T05:39:17.580Z,4.60
2023-04-15T05:41:44.976Z,4.60
2023-04-15T05:44:11.832Z,4.60
2023-04-15T05:46:38.944Z,4.60
2023-04-15T05:49:06.231Z,4.70
2023-04-15T05:51:33.133Z,4.80
2023-04-15T05:53:59.987Z,4.80
2023-04-15T05:56:27.210Z,4.70
2023-04-15T05:58:54.073Z,4.80
2023-04-15T06:01:21.297Z,4.90
2023-04-15T06:03:48.883Z,4.80
2023-04-15T06:06:15.924Z,4.80
2023-04-15T06:08:42.771Z,5.00
2023-04-15T06:11:09.685Z,5.10
2023-04-15T06:13:36.506Z,5.00
2023-04-15T06:16:04.423Z,5.00
2023-04-15T06:18:31.315Z,5.00
2023-04-15T06:20:58.370Z,4.90
2023-04-15T06:23:26.935Z,5.10
2023-04-15T06:25:54.774Z,5.00
2023-04-15T06:28:21.609Z,5.00
2023-04-15T06:30:48.480Z,5.20
2023-04-15T06:33:15.993Z,5.20
2023-04-15T06:35:43.144Z,5.40
2023-04-15T06:38:10.045Z,5.30
2023-04-15T06:40:36.932Z,5.30
2023-04-15T06:43:04.936Z,5.30
2023-04-15T06:45:32.525Z,5.40
2023-04-15T06:47:59.573Z,5.20
2023-04-15T06:50:27.276Z,5.30
2023-04-15T06:52:56.239Z,5.20
2023-04-15T06:55:23.290Z,5.50
2023-04-15T06:57:50.131Z,5.30
2023-04-15T07:00:17.570Z,5.20
2023-04-15T07:02:45.215Z,5.20
2023-04-15T07:05:12.783Z,5.30
2023-04-15T07:07:39.642Z,5.40
2023-04-15T07:10:07.171Z,5.30
2023-04-15T07:12:35.265Z,5.20
2023-04-15T07:15:02.300Z,5.20
2023-04-15T07:17:29.306Z,5.20
2023-04-15T07:19:56.428Z,5.40
2023-04-15T07:22:23.360Z,5.40
2023-04-15T07:24:50.282Z,5.30
2023-04-15T07:27:17.960Z,5.40
2023-04-15T07:29:45.039Z,5.40
2023-04-15T07:32:11.881Z,5.40
2023-04-15T07:34:38.776Z,5.30
2023-04-15T07:37:05.650Z,5.50
2023-04-15T07:39:32.637Z,5.50
2023-04-15T07:41:59.557Z,5.50
2023-04-15T07:44:27.641Z,5.50
2023-04-15T07:46:54.673Z,5.50
2023-04-15T07:49:21.608Z,5.60
2023-04-15T07:51:49.246Z,5.40
2023-04-15T07:54:16.320Z,5.50
2023-04-15T07:56:43.224Z,5.70
2023-04-15T07:59:10.488Z,5.70
2023-04-15T08:01:37.846Z,5.70
2023-04-15T08:04:05.128Z,5.60
2023-04-15T08:06:33.019Z,5.70
2023-04-15T08:09:00.145Z,5.60
2023-04-15T08:11:27.855Z,5.60
2023-04-15T08:13:54.822Z,5.80
2023-04-15T08:16:24.571Z,5.70
2023-04-15T08:18:54.146Z,5.60
2023-04-15T08:21:21.308Z,5.50
2023-04-15T08:23:50.783Z,5.70
2023-04-15T08:26:18.506Z,5.70
2023-04-15T08:28:46.668Z,5.60
2023-04-15T08:31:15.552Z,5.80
2023-04-15T08:33:42.697Z,5.80
2023-04-15T08:36:10.056Z,5.80
2023-04-15T08:38:37.376Z,5.80
2023-04-15T08:41:13.364Z,5.80
2023-04-15T08:44:01.332Z,5.90
2023-04-15T08:46:28.901Z,5.80
2023-04-15T08:48:58.053Z,6.00
2023-04-15T08:51:25.685Z,6.00
2023-04-15T08:53:53.038Z,5.90
2023-04-15T08:56:24.393Z,5.80
2023-04-15T08:58:51.459Z,5.90
2023-04-15T09:01:19.146Z,5.90
2023-04-15T09:03:48.838Z,6.00
2023-04-15T09:06:17.879Z,6.00
2023-04-15T09:08:44.980Z,6.00
2023-04-15T09:11:12.370Z,6.10
2023-04-15T09:13:39.486Z,6.00
2023-04-15T09:16:06.989Z,6.20
2023-04-15T09:18:35.623Z,6.20
2023-04-15T09:21:20.879Z,6.20
2023-04-15T09:24:01.983Z,6.20
2023-04-15T09:26:37.530Z,6.20
2023-04-15T09:29:09.281Z,6.20
2023-04-15T09:31:37.802Z,6.20
2023-04-15T09:34:05.780Z,6.30
2023-04-15T09:36:54.487Z,6.20
2023-04-15T09:39:21.734Z,6.40
2023-04-15T09:42:07.652Z,6.30
2023-04-15T09:44:34.763Z,6.40
2023-04-15T09:47:02.352Z,6.40
2023-04-15T09:49:29.432Z,6.40
2023-04-15T09:52:06.201Z,6.30
2023-04-15T09:54:38.860Z,6.50
2023-04-15T09:57:07.323Z,6.60
2023-04-15T09:59:34.443Z,6.60
2023-04-15T10:02:04.589Z,6.70
2023-04-15T10:04:36.237Z,6.70
2023-04-15T10:07:05.295Z,7.00
2023-04-15T10:09:34.190Z,7.00
2023-04-15T10:12:01.443Z,7.10
2023-04-15T10:14:32.952Z,7.00
2023-04-15T10:17:02.695Z,6.90
2023-04-15T10:19:33.265Z,7.00
2023-04-15T10:22:00.302Z,7.00
2023-04-15T10:24:28.310Z,7.10
2023-04-15T10:26:55.587Z,7.10
2023-04-15T10:29:25.557Z,7.10
2023-04-15T10:31:54.815Z,7.20
2023-04-15T10:34:23.167Z,7.20
2023-04-15T10:36:50.260Z,7.20
2023-04-15T10:39:40.498Z,7.20
2023-04-15T10:42:15.373Z,7.20
2023-04-15T10:44:50.840Z,7.20
2023-04-15T10:47:20.219Z,7.20
2023-04-15T10:49:52.548Z,7.20
2023-04-15T10:52:24.881Z,7.30
2023-04-15T10:55:10.963Z,7.40
2023-04-15T10:57:42.210Z,7.40
2023-04-15T11:00:09.249Z,7.50
2023-04-15T11:02:47.633Z,7.50
2023-04-15T11:05:18.450Z,7.40
2023-04-15T11:07:54.235Z,7.30
2023-04-15T11:10:21.144Z,7.40
2023-04-15T11:12:56.760Z,7.50
2023-04-15T11:15:32.510Z,7.50
2023-04-15T11:18:25.777Z,7.50
2023-04-15T11:20:57.658Z,7.60
2023-04-15T11:23:30.839Z,7.60
2023-04-15T11:25:59.445Z,7.60
2023-04-15T11:28:28.265Z,7.60
2023-04-15T11:30:55.821Z,7.60
2023-04-15T11:33:23.881Z,7.60
2023-04-15T11:35:55.221Z,7.70
2023-04-15T11:38:22.498Z,7.70
2023-04-15T11:40:51.405Z,7.80
2023-04-15T11:43:21.193Z,7.90
2023-04-15T11:45:55.914Z,7.90
2023-04-15T11:48:25.623Z,8.10
2023-04-15T11:51:01.274Z,8.00
2023-04-15T11:53:43.518Z,8.00
2023-04-15T11:56:19.436Z,8.10
2023-04-15T11:58:46.913Z,8.10
2023-04-15T12:01:13.964Z,8.30
2023-04-15T12:03:44.068Z,8.20
2023-04-15T12:06:24.631Z,8.20
2023-04-15T12:08:55.592Z,8.30
2023-04-15T12:11:31.507Z,8.20
2023-04-15T12:14:11.314Z,8.10
2023-04-15T12:16:51.788Z,8.20
2023-04-15T12:19:37.691Z,8.20
2023-04-15T12:22:06.737Z,8.20
2023-04-15T12:24:35.943Z,8.30
2023-04-15T12:27:08.050Z,8.10
2023-04-15T12:29:36.929Z,8.10
2023-04-15T12:32:17.330Z,8.10
2023-04-15T12:34:51.941Z,8.10
2023-04-15T12:37:19.617Z,8.10
2023-04-15T12:39:51.748Z,8.10
2023-04-15T12:42:18.966Z,7.90
2023-04-15T12:44:46.357Z,8.00
2023-04-15T12:47:13.685Z,8.10
2023-04-15T12:49:41.489Z,7.90
2023-04-15T12:52:08.554Z,8.00
2023-04-15T12:54:36.162Z,8.00
2023-04-15T12:57:06.794Z,7.90
2023-04-15T12:59:34.668Z,7.90
2023-04-15T13:02:02.979Z,7.90
2023-04-15T13:04:33.028Z,7.80
2023-04-15T13:07:00.230Z,7.90
2023-04-15T13:09:27.187Z,7.80
2023-04-15T13:11:54.615Z,7.90
2023-04-15T13:14:21.744Z,7.90
2023-04-15T13:16:48.802Z,7.80
2023-04-15T13:19:16.027Z,7.80
2023-04-15T13:21:43.014Z,7.80
2023-04-15T13:24:10.033Z,7.80
2023-04-15T13:26:37.762Z,7.90
2023-04-15T13:29:05.261Z,7.80
2023-04-15T13:31:32.513Z,7.70
2023-04-15T13:33:59.687Z,7.80
2023-04-15T13:36:27.516Z,7.70
2023-04-15T13:38:54.906Z,7.70
2023-04-15T13:41:21.981Z,7.90
2023-04-15T13:43:48.989Z,7.70
2023-04-15T13:46:16.137Z,7.70
2023-04-15T13:48:43.336Z,7.70
2023-04-15T13:51:10.472Z,7.70
2023-04-15T13:53:39.177Z,7.60
2023-04-15T13:56:10.439Z,7.70
2023-04-15T13:58:38.391Z,7.70
2023-04-15T14:01:06.963Z,7.70
2023-04-15T14:03:37.912Z,7.90
2023-04-15T14:06:06.245Z,7.70
2023-04-15T14:08:33.667Z,7.70
2023-04-15T14:11:00.885Z,7.70
2023-04-15T14:13:27.912Z,7.70
2023-04-15T14:15:54.936Z,7.60
2023-04-15T14:18:21.961Z,7.70
2023-04-15T14:20:48.935Z,7.80
2023-04-15T14:23:15.906Z,7.60
2023-04-15T14:25:42.848Z,7.70
2023-04-15T14:28:09.707Z,7.70
2023-04-15T14:30:36.794Z,7.70
2023-04-15T14:33:04.186Z,7.60
2023-04-15T14:35:31.622Z,7.60
2023-04-15T14:37:58.539Z,7.60
2023-04-15T14:40:25.838Z,7.50
2023-04-15T14:42:52.837Z,7.50
2023-04-15T14:45:19.743Z,7.70
2023-04-15T14:47:47.548Z,7.70
2023-04-15T14:50:14.522Z,7.60
2023-04-15T14:52:41.511Z,7.50
2023-04-15T14:55:13.164Z,7.50
2023-04-15T14:57:41.775Z,7.50
2023-04-15T15:00:13.687Z,7.50
2023-04-15T15:02:43.749Z,7.60
2023-04-15T15:05:11.993Z,7.50
2023-04-15T15:07:40.950Z,7.50
2023-04-15T15:10:08.306Z,7.50
2023-04-15T15:12:35.258Z,7.50
2023-04-15T15:15:12.473Z,7.40
2023-04-15T15:17:46.926Z,7.50
2023-04-15T15:20:13.846Z,7.40
2023-04-15T15:22:40.692Z,7.50
2023-04-15T15:25:07.665Z,7.50
2023-04-15T15:27:35.502Z,7.30
2023-04-15T15:30:04.519Z,7.30
2023-04-15T15:32:31.432Z,7.30
2023-04-15T15:34:58.353Z,7.30
2023-04-15T15:37:25.326Z,7.50
2023-04-15T15:39:53.100Z,7.40
2023-04-15T15:42:20.096Z,7.40
2023-04-15T15:44:49.203Z,7.30
2023-04-15T15:47:16.688Z,7.50
2023-04-15T15:49:43.629Z,7.30
2023-04-15T15:52:11.368Z,7.30
2023-04-15T15:54:39.302Z,7.10
2023-04-15T15:57:06.261Z,7.20
2023-04-15T15:59:33.265Z,7.30
2023-04-15T16:02:02.543Z,7.10
2023-04-15T16:04:29.964Z,7.40
2023-04-15T16:06:56.921Z,7.20
2023-04-15T16:09:23.883Z,7.20
2023-04-15T16:11:50.834Z,7.10
2023-04-15T16:14:17.784Z,7.10
2023-04-15T16:16:44.769Z,7.10
2023-04-15T16:19:11.735Z,7.20
2023-04-15T16:21:39.012Z,7.00
2023-04-15T16:24:06.197Z,7.20
2023-04-15T16:26:33.139Z,7.10
2023-04-15T16:29:00.459Z,7.00
2023-04-15T16:31:27.648Z,7.10
2023-04-15T16:33:54.677Z,7.00
2023-04-15T16:36:21.626Z,7.00
2023-04-15T16:38:48.834Z,7.00
2023-04-15T16:41:16.394Z,7.00
2023-04-15T16:43:43.371Z,6.80
2023-04-15T16:46:10.530Z,7.00
2023-04-15T16:48:37.811Z,6.90
2023-04-15T16:51:04.843Z,6.90
2023-04-15T16:53:31.754Z,6.80
2023-04-15T16:55:58.636Z,6.80
2023-04-15T16:58:25.631Z,6.90
2023-04-15T17:00:52.744Z,6.90
2023-04-15T17:03:19.712Z,6.80
2023-04-15T17:05:46.646Z,7.10
2023-04-15T17:08:13.485Z,6.80
2023-04-15T17:10:40.368Z,6.90
2023-04-15T17:13:07.470Z,6.80
2023-04-15T17:15:34.372Z,6.90
2023-04-15T17:18:01.999Z,6.80
2023-04-15T17:20:30.314Z,6.80
2023-04-15T17:22:57.697Z,6.80
2023-04-15T17:25:24.616Z,6.90
2023-04-15T17:27:51.552Z,6.90
2023-04-15T17:30:19.005Z,6.90
2023-04-15T17:32:46.041Z,6.80
2023-04-15T17:35:13.036Z,6.90
2023-04-15T17:37:39.922Z,6.80
2023-04-15T17:40:08.791Z,6.80
2023-04-15T17:42:36.019Z,6.80
2023-04-15T17:45:03.076Z,6.80
2023-04-15T17:47:30.032Z,6.80
2023-04-15T17:49:56.956Z,6.80
2023-04-15T17:52:23.863Z,7.00
2023-04-15T17:54:50.718Z,6.80
2023-04-15T17:57:17.717Z,6.80
2023-04-15T17:59:47.387Z,6.80
2023-04-15T18:02:15.109Z,6.80
2023-04-15T18:04:42.134Z,6.70
2023-04-15T18:07:09.534Z,6.80
2023-04-15T18:09:36.806Z,6.90
2023-04-15T18:12:04.693Z,6.80
2023-04-15T18:14:34.605Z,6.80
2023-04-15T18:17:05.232Z,6.70
2023-04-15T18:19:32.378Z,6.70
2023-04-15T18:22:02.103Z,6.70
2023-04-15T18:24:29.160Z,6.60
2023-04-15T18:26:56.598Z,6.70
2023-04-15T18:29:23.656Z,6.70
2023-04-15T18:31:51.434Z,6.80
2023-04-15T18:34:18.466Z,6.70
2023-04-15T18:36:46.107Z,6.70
2023-04-15T18:39:13.043Z,6.70
2023-04-15T18:41:39.901Z,6.60
2023-04-15T18:44:06.759Z,6.60
2023-04-15T18:46:34.026Z,6.70
2023-04-15T18:49:01.384Z,6.80
2023-04-15T18:51:28.319Z,6.60
2023-04-15T18:53:55.231Z,6.80
2023-04-15T18:56:22.125Z,6.70
2023-04-15T18:59:27.917Z,6.70
2023-04-15T19:01:36.084Z,6.60
2023-04-15T19:04:03.359Z,6.70
2023-04-15T19:06:30.928Z,6.70
2023-04-15T19:08:58.710Z,6.70
2023-04-15T19:11:26.279Z,6.70
2023-04-15T19:13:53.413Z,6.80
2023-04-15T19:16:20.560Z,6.70
2023-04-15T19:18:47.512Z,6.80
2023-04-15T19:21:14.759Z,6.70
2023-04-15T19:23:43.160Z,6.60
2023-04-15T19:26:11.795Z,6.80
2023-04-15T19:28:38.727Z,6.70
2023-04-15T19:31:05.937Z,6.60
2023-04-15T19:33:33.014Z,6.70
2023-04-15T19:36:05.854Z,6.60
2023-04-15T19:38:35.762Z,6.70
2023-04-15T19:41:02.683Z,6.80
2023-04-15T19:43:29.882Z,6.60
2023-04-15T19:45:56.831Z,6.60
2023-04-15T19:48:25.278Z,6.50
2023-04-15T19:50:52.362Z,6.50
2023-04-15T19:53:19.292Z,6.50
2023-04-15T19:55:47.199Z,6.60
2023-04-15T19:58:14.402Z,6.50
2023-04-15T20:00:41.428Z,6.50
2023-04-15T20:03:08.485Z,6.50
2023-04-15T20:05:35.787Z,6.40
2023-04-15T20:08:03.051Z,6.50
2023-04-15T20:10:31.776Z,6.40
2023-04-15T20:12:59.078Z,6.40
2023-04-15T20:15:26.152Z,6.50
2023-04-15T20:17:53.432Z,6.50
2023-04-15T20:20:20.889Z,6.40
2023-04-15T20:22:48.163Z,6.40
2023-04-15T20:25:15.300Z,6.40
2023-04-15T20:27:42.224Z,6.30
2023-04-15T20:30:09.624Z,6.40
2023-04-15T20:32:36.763Z,6.40
2023-04-15T20:35:05.166Z,6.40
2023-04-15T20:37:33.611Z,6.40
2023-04-15T20:40:01.666Z,6.40
2023-04-15T20:42:32.747Z,6.60
2023-04-15T20:44:59.882Z,6.40
2023-04-15T20:47:26.952Z,6.30
2023-04-15T20:49:54.475Z,6.40
2023-04-15T20:52:21.914Z,6.30
2023-04-15T20:54:48.886Z,6.30
2023-04-15T20:57:15.866Z,6.40
2023-04-15T20:59:42.843Z,6.40
2023-04-15T21:02:09.854Z,6.40
2023-04-15T21:04:38.400Z,6.30
2023-04-15T21:07:05.314Z,6.30
2023-04-15T21:09:32.415Z,6.40
2023-04-15T21:12:01.691Z,6.30
2023-04-15T21:14:29.189Z,6.30
2023-04-15T21:16:58.309Z,6.40
2023-04-15T21:19:25.268Z,6.30
2023-04-15T21:21:52.691Z,6.30
2023-04-15T21:24:19.581Z,6.30
2023-04-15T21:26:46.540Z,6.30
2023-04-15T21:29:13.695Z,6.30
2023-04-15T21:31:40.984Z,6.20
2023-04-15T21:34:08.143Z,6.30
2023-04-15T21:36:35.996Z,6.40
2023-04-15T21:39:03.401Z,6.20
2023-04-15T21:41:31.163Z,6.30
2023-04-15T21:43:58.271Z,6.30
2023-04-15T21:46:33.171Z,6.20
2023-04-15T21:49:02.195Z,6.20
2023-04-15T21:51:29.132Z,6.20
2023-04-15T21:53:56.078Z,6.20
2023-04-15T21:56:24.421Z,6.30
2023-04-15T21:58:54.574Z,6.20
2023-04-15T22:01:21.590Z,6.30
2023-04-15T22:03:48.958Z,6.20
2023-04-15T22:06:16.409Z,6.30
2023-04-15T22:08:55.200Z,6.20
2023-04-15T22:11:27.189Z,6.10
2023-04-15T22:13:55.017Z,6.20
2023-04-15T22:16:21.991Z,6.30
2023-04-15T22:18:49.079Z,6.20
2023-04-15T22:21:16.450Z,6.10
2023-04-15T22:23:47.563Z,6.10
2023-04-15T22:26:14.693Z,6.20
2023-04-15T22:28:41.955Z,6.20
2023-04-15T22:31:09.085Z,6.20
2023-04-15T22:33:36.124Z,6.10
2023-04-15T22:36:03.154Z,6.20
2023-04-15T22:38:30.088Z,6.20
2023-04-15T22:40:56.979Z,6.10
2023-04-15T22:43:23.984Z,6.10
2023-04-15T22:45:51.521Z,6.10
2023-04-15T22:48:19.214Z,6.10
2023-04-15T22:50:46.658Z,6.10
2023-04-15T22:53:17.353Z,6.10
2023-04-15T22:55:48.648Z,6.30
2023-04-15T22:58:16.250Z,6.20
2023-04-15T23:00:43.260Z,6.10
2023-04-15T23:03:10.417Z,6.20
2023-04-15T23:05:37.771Z,6.20
2023-04-15T23:08:04.659Z,6.10
2023-04-15T23:10:31.610Z,6.10
2023-04-15T23:12:58.601Z,6.10
2023-04-15T23:15:25.651Z,6.10
2023-04-15T23:17:52.612Z,6.10
2023-04-15T23:20:19.597Z,6.10
2023-04-15T23:22:46.659Z,6.30
2023-04-15T23:25:13.732Z,6.10
2023-04-15T23:27:40.773Z,6.20
2023-04-15T23:30:08.206Z,6.10
2023-04-15T23:32:35.136Z,6.10
2023-04-15T23:35:02.109Z,6.10
2023-04-15T23:37:31.091Z,6.10
2023-04-15T23:39:58.082Z,6.10
2023-04-15T23:42:25.125Z,6.10
2023-04-15T23:44:52.043Z,6.10
2023-04-15T23:47:19.052Z,6.10
2023-04-15T23:49:46.043Z,6.00
2023-04-15T23:52:13.002Z,6.20
2023-04-15T23:54:40.133Z,6.20
2023-04-15T23:57:07.060Z,6.10
2023-04-15T23:59:34.040Z,6.10
